Edchera, Western Sahara
Current Conditions -  °F | °C
As of 7:00 AM on Sunday 26 Oct 2014 (Local Time) from GMML Reporting Station
Clear Clear  
Wind Chill: 63°   Ceiling: Unl
Heat Index: 63°   Visibility: 6mi
Dew Point: 57°   Wind: 7mph
Humidity: 82%   Direction: 50°NE
Pressure: 29.97"   Gusts: NA
Location:  27.1°N, 13.3°W
Report Text: GMML 260700Z AUTO 05006KT 9999NDV NCD 17/14 Q1015
Loading
Personal Weather Stations






























Interactive Weather Map
Tropical Storm Tracking
New forecast layout! Learn more

10-Day Weather Forecast

Advertisements
Track Severe Weather on mobile